Golcuk, Turkey

10:08 AM EET on December 28, 2014 (GMT +0200)
Topel Air Base | Change Station
CLOSE
Current Station
Airport
Location: Topel,
Elevation: 164 ft
Nearby Weather Stations

Elev 164 ft 40.74 °N, 30.08 °E | Updated 18 minutes ago

Scattered Clouds
Scattered Clouds
43 °F
Feels Like 43 °F
N
2
Wind Variable Wind from Variable

Today
High -- | Low -- °F
--% Chance of Precip.
Yesterday
High -- | Low -- °F
Precip. -- in
7:23 AM 4:40 PM
Waxing Crescent, 45% visible
Pressure 30.04 in
Visibility 6.2 miles
Clouds Few 3500 ft
Scattered Clouds 20000 ft
Dew Point 36 °F
Humidity 76%
Rainfall 0.00 in
Snow Depth Not available.
UV 1 out of 12
Pollen Not available.
Air Quality Not available.
Flu Activity Not available.
METAR LTBQ 280750Z VRB02KT 9999 FEW035 SCT200 06/02 Q1017 NOSIG

More Conditions Fewer Conditions

Pressure 30.04 in
Visibility 6.2 miles
Clouds Few 3500 ft
Scattered Clouds 20000 ft
Dew Point 36 °F
Humidity 76%
Rainfall 0.00 in
Snow Depth Not available.
UV 1 out of 12
Pollen Not available.
Air Quality Not available.
Flu Activity Not available.
METAR LTBQ 280750Z VRB02KT 9999 FEW035 SCT200 06/02 Q1017 NOSIG

More Conditions Fewer Conditions

10-Day Weather Forecast

Almanac

Astronomy

Dec. 28, 2014 Rise Set
Actual Time
Civil Twilight
Nautical Twilight
Astronomical Twilight
Moon
Length of Visible Light
Length of Day
Tomorrow will be .
, % of the Moon is Illuminated

Today's Extremes

Country Highs Country Lows

Community

WunderPhotos

Upload Photos

1,781,210 photos uploaded!

WunderBlogs® & News

Nearby

Air Quality

  Air Quality AQ Index Pollutant
Not available.

Snow Depth

Station Depth Elevation

Earthquake Activity

City Distance Mag. Time & Date
Minimum magnitude displayed is 2.5.

Coastal Water Temperatures

Place Temperature

Nearby Weather Stations